Terminal Aerodrome Forecast
Issued by NWS

Home | Current Version | Previous Version | Graphics & Text | Print | Product List | Glossary Off
Versions: 1 2 3 4 5 6 7 8 9 10 11 12 13 14 15 16 17 18 19 20 21 22

000
FTUS43 KBIS 260521
TAFMOT
TAF
KMOT 260521Z 2606/2706 VRB03KT P6SM SCT025 OVC040
      TEMPO 2606/2610 BKN025 OVC035
     FM261000 VRB03KT P6SM VCSH BKN020 OVC030
     FM261700 18004KT P6SM VCSH SCT020 OVC040
     FM262000 23005KT P6SM SCT030 BKN035
     FM270000 22004KT P6SM FEW040 SCT060=

USA.gov is the U.S. government's official web portal to all federal, state and local government web resources and services.